Terminal Aerodrome Forecast
Issued by NWS

Home | Current Version | Previous Version | Text Only | Print | Product List | Glossary On
Versions: 1 2 3 4 5 6 7 8 9 10 11 12 13
000
FTUS44 KTSA 161600 AAA
TAFXNA
TAF AMD
KXNA 161600Z 1616/1712 04004KT P6SM OVC010
      TEMPO 1616/1618 5SM BR OVC006
     FM161800 03004KT P6SM OVC020
     FM162100 36003KT P6SM BKN030
     FM170000 00000KT P6SM SCT035
     FM170500 00000KT 3SM BR SCT010=

USA.gov is the U.S. government's official web portal to all federal, state and local government web resources and services.